Time;durP1;ratioP1;P1;durP2;ratioP2;P2;SDS_P1;SDS_P2;PMS_P1;PMS_P2;Temp;Humidity;BMP_temperature;BMP_pressure;BME280_temperature;BME280_humidity;BME280_pressure;Samples;Min_cycle;Max_cycle;Signal;HPM_P1;HPM_P2
2023/01/03 00:00:10;;;;;;;32.95;18.80;;;;;;;2.15;80.72;101184.34;5084961;28;20077;-28
2023/01/03 00:02:35;;;;;;;30.05;15.70;;;;;;;1.57;80.68;101198.13;5079909;28;20029;-28
2023/01/03 00:05:01;;;;;;;29.40;16.70;;;;;;;1.57;81.29;101188.47;5079091;28;20035;-25
2023/01/03 00:07:32;;;;;;;28.95;16.17;;;;;;;1.86;81.12;101182.47;5080914;28;20051;-27
2023/01/03 00:10:09;;;;;;;29.08;16.20;;;;;;;1.76;80.78;101184.25;5080445;28;20052;-28
2023/01/03 00:12:35;;;;;;;26.08;14.88;;;;;;;1.86;81.22;101198.25;5085173;28;20570;-26
2023/01/03 00:15:02;;;;;;;32.65;17.17;;;;;;;1.83;82.52;101188.00;5080517;28;20401;-26
2023/01/03 00:17:27;;;;;;;24.80;14.88;;;;;;;1.77;82.10;101162.22;5078384;28;20017;-25
2023/01/03 00:19:53;;;;;;;31.67;16.35;;;;;;;2.22;80.42;101180.16;5080182;28;20030;-25
2023/01/03 00:22:19;;;;;;;33.85;15.18;;;;;;;2.34;80.55;101168.53;5074901;28;20052;-26
2023/01/03 00:24:46;;;;;;;33.50;17.83;;;;;;;2.35;80.52;101187.78;5069767;28;20060;-26
2023/01/03 00:27:13;;;;;;;38.40;17.25;;;;;;;1.93;82.16;101166.97;5069568;28;20407;-28
2023/01/03 00:29:38;;;;;;;49.80;18.23;;;;;;;2.09;83.38;101179.63;5051723;28;20035;-25
2023/01/03 00:32:05;;;;;;;59.00;22.77;;;;;;;1.76;88.11;101176.34;5051027;28;20037;-25
2023/01/03 00:34:31;;;;;;;65.03;19.40;;;;;;;1.63;91.53;101181.00;5069708;28;20031;-27
2023/01/03 00:36:56;;;;;;;46.42;19.95;;;;;;;1.52;88.76;101169.63;5052536;28;20040;-28
2023/01/03 00:39:22;;;;;;;48.90;16.67;;;;;;;1.48;88.63;101173.47;5078931;28;20028;-28
2023/01/03 00:41:48;;;;;;;46.30;19.00;;;;;;;1.46;88.46;101159.63;5078950;28;20031;-28
2023/01/03 00:44:14;;;;;;;47.45;19.48;;;;;;;1.30;90.12;101180.31;5079977;28;20400;-26
2023/01/03 00:46:39;;;;;;;75.70;29.90;;;;;;;1.54;89.97;101167.69;5062885;28;20103;-27
2023/01/03 00:49:05;;;;;;;47.28;19.85;;;;;;;1.63;88.09;101154.72;5079201;28;20098;-27
2023/01/03 00:51:33;;;;;;;41.05;17.42;;;;;;;1.75;87.62;101164.16;5074556;28;20032;-25
2023/01/03 00:54:00;;;;;;;35.22;16.38;;;;;;;1.65;86.01;101173.81;5068777;28;20078;-32
2023/01/03 00:56:30;;;;;;;34.70;16.55;;;;;;;1.66;86.00;101167.59;5069234;28;20468;-28
2023/01/03 00:58:55;;;;;;;34.60;16.67;;;;;;;1.68;85.81;101163.03;5051519;28;20458;-28
2023/01/03 01:01:51;;;;;;;38.55;16.30;;;;;;;1.77;85.40;101167.50;5069270;28;20033;-29
2023/01/03 01:04:22;;;;;;;41.53;17.40;;;;;;;1.66;85.81;101165.81;5067647;28;20048;-25
2023/01/03 01:06:57;;;;;;;35.13;17.52;;;;;;;1.82;84.69;101160.03;5069125;28;20025;-26
2023/01/03 01:09:26;;;;;;;40.80;18.08;;;;;;;1.59;85.88;101149.75;5068932;28;20032;-28
2023/01/03 01:11:52;;;;;;;38.85;18.00;;;;;;;1.49;86.82;101158.53;5069243;28;20021;-25
2023/01/03 01:14:20;;;;;;;42.20;18.15;;;;;;;1.16;88.80;101153.41;5068870;28;20174;-25
2023/01/03 01:17:07;;;;;;;36.15;17.45;;;;;;;1.45;87.53;101150.09;5051267;28;20028;-24
2023/01/03 01:19:35;;;;;;;41.65;19.42;;;;;;;1.30;88.64;101148.78;5068531;28;20040;-25
2023/01/03 01:22:01;;;;;;;39.17;19.17;;;;;;;1.51;87.42;101127.69;5068783;28;20140;-25
2023/01/03 01:24:26;;;;;;;35.83;18.48;;;;;;;1.48;86.79;101128.78;5051037;28;20485;-25
2023/01/03 01:26:52;;;;;;;34.58;17.77;;;;;;;1.48;86.11;101136.69;5051145;28;20068;-25
2023/01/03 01:29:18;;;;;;;31.60;16.98;;;;;;;1.58;85.17;101134.91;5050831;28;20097;-24
2023/01/03 01:31:45;;;;;;;32.85;17.52;;;;;;;1.67;84.23;101140.34;5068939;28;20587;-24
2023/01/03 01:34:11;;;;;;;33.40;18.17;;;;;;;1.51;83.52;101123.28;5068621;28;20027;-29
2023/01/03 01:36:40;;;;;;;30.55;18.38;;;;;;;1.58;84.18;101142.81;5077720;28;20068;-26
2023/01/03 01:39:16;;;;;;;31.33;18.80;;;;;;;1.42;84.67;101124.06;5088985;28;20416;-26
2023/01/03 01:45:19;;;;;;;46.35;22.50;;;;;;;1.25;85.64;101145.69;5089349;28;20081;-25
2023/01/03 01:47:55;;;;;;;42.40;19.20;;;;;;;1.08;85.16;101139.28;5054555;28;20039;-27
2023/01/03 01:50:29;;;;;;;34.03;18.05;;;;;;;1.36;85.09;101137.75;5088823;28;20016;-26
2023/01/03 01:53:11;;;;;;;33.58;18.90;;;;;;;1.76;83.78;101139.53;5088838;28;20059;-26
2023/01/03 01:55:42;;;;;;;31.95;18.95;;;;;;;1.92;82.95;101129.31;5089206;28;20085;-25
2023/01/03 01:58:08;;;;;;;31.45;18.40;;;;;;;1.58;82.99;101111.25;5070624;28;20024;-26
2023/01/03 02:00:35;;;;;;;35.08;19.98;;;;;;;1.68;84.42;101120.97;5088782;28;20097;-27
2023/01/03 02:03:02;;;;;;;44.85;22.33;;;;;;;1.57;85.73;101109.59;5089095;28;20028;-24
2023/01/03 02:05:30;;;;;;;47.25;22.45;;;;;;;1.52;86.57;101116.22;5090895;28;20031;-27
2023/01/03 02:07:55;;;;;;;60.55;24.52;;;;;;;1.54;89.04;101120.38;5092421;28;20032;-28
2023/01/03 02:10:51;;;;;;;52.83;24.33;;;;;;;1.69;89.17;101128.69;5092893;28;20510;-25
2023/01/03 02:13:40;;;;;;;64.72;26.77;;;;;;;1.89;88.26;101124.31;5092730;28;20110;-28
2023/01/03 02:16:17;;;;;;;59.72;26.10;;;;;;;2.05;86.52;101122.97;5091823;28;20040;-29
2023/01/03 02:18:55;;;;;;;56.40;25.30;;;;;;;1.61;87.08;101104.88;5092971;28;20043;-25
2023/01/03 02:21:26;;;;;;;54.75;25.05;;;;;;;2.04;84.99;101126.56;5092144;28;20499;-26
2023/01/03 02:24:13;;;;;;;47.83;24.00;;;;;;;1.73;85.10;101092.47;5092446;28;20038;-26
2023/01/03 02:26:53;;;;;;;49.75;25.67;;;;;;;1.58;85.34;101095.47;5092068;28;20415;-25
2023/01/03 02:29:40;;;;;;;70.97;28.88;;;;;;;1.59;85.69;101118.19;5092462;28;20055;-26
2023/01/03 02:32:39;;;;;;;45.47;22.85;;;;;;;1.52;85.28;101122.31;5091999;28;20028;-25
2023/01/03 02:35:17;;;;;;;44.50;21.15;;;;;;;1.32;84.04;101094.28;5092149;28;20024;-26
2023/01/03 02:37:54;;;;;;;44.83;21.42;;;;;;;1.61;83.68;101118.03;5092294;28;20024;-26
2023/01/03 02:40:31;;;;;;;42.10;20.40;;;;;;;0.92;85.23;101087.19;5073553;28;20051;-26
2023/01/03 02:43:17;;;;;;;52.97;21.00;;;;;;;1.12;86.33;101107.34;5092106;28;20043;-25
2023/01/03 02:45:48;;;;;;;44.35;19.95;;;;;;;1.10;86.14;101105.81;5092228;28;20101;-26
2023/01/03 02:48:22;;;;;;;51.58;21.63;;;;;;;1.09;87.98;101114.69;5091844;28;20035;-25
2023/01/03 02:50:53;;;;;;;44.10;19.73;;;;;;;1.38;85.48;101117.41;5091853;28;20467;-28
2023/01/03 02:53:26;;;;;;;41.35;20.73;;;;;;;1.00;86.98;101098.75;5091889;28;20116;-27
2023/01/03 02:55:56;;;;;;;41.95;20.30;;;;;;;1.19;87.14;101120.81;5091516;28;20031;-30
2023/01/03 02:58:25;;;;;;;39.22;20.23;;;;;;;1.42;84.91;101120.63;5091542;28;20393;-24
2023/01/03 03:00:55;;;;;;;38.50;20.58;;;;;;;1.22;85.17;101120.53;5091720;28;20031;-24
2023/01/03 03:03:28;;;;;;;39.65;20.33;;;;;;;1.08;84.82;101111.19;5091595;28;20028;-27
2023/01/03 03:06:06;;;;;;;38.50;19.50;;;;;;;1.21;84.70;101118.88;5091711;28;20032;-26
2023/01/03 03:08:32;;;;;;;31.08;18.80;;;;;;;0.93;85.23;101092.34;5073535;28;20028;-26
2023/01/03 03:14:13;;;;;;;38.45;19.75;;;;;;;0.55;88.32;101117.41;5091163;28;20488;-25
2023/01/03 03:16:48;;;;;;;32.85;19.13;;;;;;;0.82;85.76;101081.94;5089552;28;20111;-25
2023/01/03 03:25:11;;;;;;;51.33;20.15;;;;;;;0.69;88.96;101099.66;5091112;28;20114;-25
2023/01/03 03:30:29;;;;;;;39.22;20.13;;;;;;;0.87;88.73;101105.16;5091127;28;20048;-26
2023/01/03 03:33:00;;;;;;;33.95;19.75;;;;;;;0.44;88.97;101114.84;5091105;28;20039;-25
2023/01/03 03:35:29;;;;;;;45.05;20.27;;;;;;;0.29;89.44;101111.69;5072620;28;20058;-25
2023/01/03 03:37:58;;;;;;;46.20;18.67;;;;;;;0.78;88.64;101112.03;5072857;28;20028;-26
2023/01/03 03:46:21;;;;;;;42.88;18.77;;;;;;;-0.18;95.59;101102.44;5090757;28;20123;-25
2023/01/03 03:51:56;;;;;;;48.97;19.20;;;;;;;0.49;93.71;101098.69;5090745;28;20043;-26
2023/01/03 03:54:24;;;;;;;44.17;19.67;;;;;;;0.47;91.20;101113.75;5090493;28;20054;-27
2023/01/03 03:57:09;;;;;;;46.17;21.13;;;;;;;0.33;91.72;101110.47;5090911;28;20028;-24
2023/01/03 03:59:37;;;;;;;49.42;20.13;;;;;;;0.06;92.83;101112.72;5072494;28;20028;-28
2023/01/03 04:02:05;;;;;;;41.72;19.05;;;;;;;-0.03;93.71;101109.91;5090674;28;20117;-25
2023/01/03 04:04:35;;;;;;;;;;;;;;;-0.06;94.51;101111.94;5091044;28;20043;-26
2023/01/03 04:07:01;;;;;;;38.00;18.55;;;;;;;0.08;94.00;101106.44;5090298;28;19917;-27
2023/01/03 04:09:27;;;;;;;48.55;19.55;;;;;;;0.02;93.60;101103.44;5090325;28;20020;-26
2023/01/03 04:11:52;;;;;;;44.90;19.88;;;;;;;-0.16;94.70;101105.75;5090375;28;20016;-24
2023/01/03 04:14:18;;;;;;;48.78;20.33;;;;;;;-0.04;95.80;101103.00;5071722;28;20415;-26
2023/01/03 04:16:43;;;;;;;44.13;21.70;;;;;;;-0.15;95.75;101087.28;5090325;28;20020;-26
2023/01/03 04:19:09;;;;;;;46.28;21.13;;;;;;;-0.19;95.34;101100.78;5090361;28;20082;-28
2023/01/03 04:21:35;;;;;;;49.03;21.33;;;;;;;-0.25;95.00;101094.22;5071905;28;20484;-27
2023/01/03 04:24:02;;;;;;;49.40;21.25;;;;;;;-0.13;95.12;101116.84;5090198;28;20024;-26
2023/01/03 04:26:27;;;;;;;47.60;20.05;;;;;;;-0.18;95.72;101108.53;5090251;28;20021;-26
2023/01/03 04:28:52;;;;;;;45.17;20.75;;;;;;;-0.04;94.85;101110.88;5089340;28;20032;-26
2023/01/03 04:31:18;;;;;;;55.35;21.83;;;;;;;-0.01;95.79;101107.16;5089881;28;20028;-25
2023/01/03 04:33:43;;;;;;;49.45;22.83;;;;;;;0.10;95.32;101101.03;5071487;28;20031;-25
2023/01/03 04:36:09;;;;;;;74.07;27.88;;;;;;;0.20;96.44;101096.69;5071541;28;20509;-26
2023/01/03 04:38:34;;;;;;;67.07;25.30;;;;;;;0.17;97.09;101113.53;5090327;28;20449;-25
2023/01/03 04:41:05;;;;;;;62.75;23.60;;;;;;;0.33;97.60;101113.09;5089827;28;20036;-26
2023/01/03 04:46:14;;;;;;;55.08;23.92;;;;;;;0.14;98.06;101107.69;5089658;28;20092;-25
2023/01/03 04:48:40;;;;;;;60.42;24.45;;;;;;;0.11;97.66;101097.47;5089980;28;20449;-27
2023/01/03 04:51:05;;;;;;;62.00;26.17;;;;;;;0.32;96.77;101107.97;5089819;28;20028;-25
2023/01/03 04:53:31;;;;;;;72.22;28.33;;;;;;;0.50;95.33;101113.50;5071637;28;20556;-26
2023/01/03 04:55:56;;;;;;;59.83;27.00;;;;;;;0.28;94.98;101099.53;5071376;28;20056;-27
2023/01/03 04:58:22;;;;;;;53.30;25.17;;;;;;;0.31;95.00;101122.91;5089112;28;20035;-26
2023/01/03 05:00:48;;;;;;;52.30;22.83;;;;;;;0.37;94.73;101134.69;5089681;28;20092;-27
2023/01/03 05:03:13;;;;;;;40.70;20.50;;;;;;;0.24;95.53;101124.34;5089545;28;20028;-26
2023/01/03 05:05:39;;;;;;;34.13;20.13;;;;;;;0.47;94.88;101105.88;5089865;28;20024;-26
2023/01/03 05:08:06;;;;;;;41.80;21.10;;;;;;;0.60;92.64;101104.72;5089238;28;20047;-24
2023/01/03 05:10:32;;;;;;;32.95;20.25;;;;;;;0.74;90.94;101131.63;5089320;28;20040;-29
2023/01/03 05:12:58;;;;;;;38.53;20.38;;;;;;;0.29;92.50;101119.56;5089197;28;20032;-28
2023/01/03 05:15:28;;;;;;;32.20;19.05;;;;;;;0.25;92.61;101115.53;5089247;28;20081;-26
2023/01/03 05:17:54;;;;;;;32.97;19.92;;;;;;;0.11;93.32;101134.19;5089520;28;20048;-29
2023/01/03 05:25:49;;;;;;;53.65;26.25;;;;;;;-0.12;94.11;101115.03;5089141;28;20047;-27
2023/01/03 05:28:15;;;;;;;56.30;25.75;;;;;;;0.23;92.58;101122.69;5088736;28;20113;-26
2023/01/03 05:30:40;;;;;;;50.60;25.90;;;;;;;0.29;92.60;101142.34;5089477;28;20468;-27
2023/01/03 05:33:05;;;;;;;67.68;27.40;;;;;;;0.28;91.95;101124.94;5089427;28;20038;-26
2023/01/03 05:35:31;;;;;;;59.97;28.35;;;;;;;0.01;93.27;101123.59;5088954;28;20616;-26
2023/01/03 05:37:56;;;;;;;46.97;24.13;;;;;;;0.04;92.84;101120.75;5070953;28;20543;-26
2023/01/03 05:40:22;;;;;;;68.55;28.40;;;;;;;-0.14;94.59;101146.66;5088438;28;20024;-27
2023/01/03 05:42:47;;;;;;;69.45;30.20;;;;;;;-0.20;94.78;101131.41;5075711;28;20032;-25
2023/01/03 05:45:13;;;;;;;50.08;25.48;;;;;;;-0.03;92.81;101149.25;5076665;28;20389;-29
2023/01/03 05:47:38;;;;;;;49.13;25.70;;;;;;;-0.25;92.55;101107.34;5082895;28;20418;-31
2023/01/03 05:50:04;;;;;;;45.78;23.20;;;;;;;-0.05;92.38;101135.41;5070400;28;20020;-26
2023/01/03 05:52:29;;;;;;;38.97;22.40;;;;;;;-0.20;92.32;101147.16;5084106;28;20036;-26
2023/01/03 05:54:55;;;;;;;39.65;22.52;;;;;;;-0.11;92.59;101146.41;5081186;28;20089;-28
2023/01/03 05:57:20;;;;;;;61.03;30.80;;;;;;;-0.18;92.69;101140.00;5066126;28;20028;-27
2023/01/03 05:59:46;;;;;;;74.57;36.42;;;;;;;0.03;92.21;101141.84;5065956;28;20087;-27
2023/01/03 06:02:11;;;;;;;65.30;36.58;;;;;;;0.21;90.03;101135.09;5084729;28;20031;-28
2023/01/03 06:04:37;;;;;;;56.20;31.15;;;;;;;0.17;89.98;101128.44;5064661;28;20043;-28
2023/01/03 06:07:02;;;;;;;71.90;35.65;;;;;;;0.23;89.89;101146.31;5080996;28;20020;-26
2023/01/03 06:09:28;;;;;;;72.35;33.80;;;;;;;0.44;89.69;101158.63;5082674;28;20019;-27
2023/01/03 06:11:53;;;;;;;86.88;40.20;;;;;;;0.24;89.74;101140.09;5082079;28;20407;-26
2023/01/03 06:14:18;;;;;;;77.28;33.40;;;;;;;0.36;89.43;101139.09;5081177;28;20101;-25
2023/01/03 06:19:29;;;;;;;65.68;27.90;;;;;;;0.34;90.42;101154.13;5090594;28;20586;-24
2023/01/03 06:21:54;;;;;;;69.85;28.20;;;;;;;0.49;90.24;101153.81;5073774;28;20059;-27
2023/01/03 06:24:20;;;;;;;63.20;26.10;;;;;;;-0.04;92.69;101120.50;5092694;28;20089;-26
2023/01/03 06:26:45;;;;;;;57.25;25.50;;;;;;;0.23;92.56;101151.56;5092596;28;20020;-25
2023/01/03 06:29:11;;;;;;;46.33;22.75;;;;;;;0.44;91.05;101154.19;5092701;28;20039;-26
2023/01/03 06:31:36;;;;;;;62.35;22.38;;;;;;;0.33;92.53;101139.34;5073969;28;20038;-26
2023/01/03 06:34:02;;;;;;;55.03;22.98;;;;;;;0.40;92.84;101161.50;5092324;28;20403;-26
2023/01/03 06:36:30;;;;;;;52.85;23.52;;;;;;;0.55;92.88;101153.31;5092213;28;20042;-26
2023/01/03 06:38:57;;;;;;;67.60;22.23;;;;;;;0.43;92.42;101146.44;5073955;28;20020;-29
2023/01/03 06:41:23;;;;;;;54.50;25.85;;;;;;;0.55;93.29;101174.31;5092549;28;20035;-28
2023/01/03 06:43:48;;;;;;;63.60;30.38;;;;;;;0.82;90.79;101146.72;5092315;28;20031;-27
2023/01/03 06:54:33;;;;;;;45.83;27.02;;;;;;;0.90;89.41;101146.91;5071957;28;20039;-26
2023/01/03 06:56:58;;;;;;;65.43;31.67;;;;;;;1.02;88.06;101177.41;5053537;28;20032;-26
2023/01/03 06:59:25;;;;;;;122.78;65.25;;;;;;;1.32;88.01;101181.03;5071546;28;20051;-27
2023/01/03 07:01:52;;;;;;;389.52;257.63;;;;;;;1.24;87.13;101176.41;5071621;28;20052;-29
2023/01/03 07:04:18;;;;;;;101.90;65.68;;;;;;;1.29;86.80;101161.09;5071383;28;20047;-26
2023/01/03 07:06:44;;;;;;;65.80;38.85;;;;;;;1.45;87.47;101178.16;5071587;28;20145;-25
2023/01/03 07:09:10;;;;;;;64.70;40.05;;;;;;;1.43;86.15;101162.56;5071329;28;20484;-25
2023/01/03 07:11:37;;;;;;;50.40;30.92;;;;;;;1.38;86.56;101154.22;5053351;28;20480;-26
2023/01/03 07:14:03;;;;;;;48.67;29.05;;;;;;;1.90;85.47;101173.34;5069579;28;20385;-27
2023/01/03 07:16:32;;;;;;;48.72;32.45;;;;;;;1.95;84.88;101165.88;5070119;28;20037;-25
2023/01/03 07:18:58;;;;;;;39.78;23.60;;;;;;;1.92;85.45;101176.69;5071235;28;20039;-25
2023/01/03 07:21:25;;;;;;;39.88;25.50;;;;;;;1.81;86.20;101182.03;5071071;28;20037;-28
2023/01/03 07:23:55;;;;;;;30.10;20.92;;;;;;;2.09;85.97;101182.25;5071005;28;20551;-27
2023/01/03 07:26:23;;;;;;;35.95;24.23;;;;;;;2.33;84.31;101187.09;5072662;28;20389;-26
2023/01/03 07:28:48;;;;;;;28.50;19.95;;;;;;;2.47;83.50;101181.44;5079525;28;20067;-25
2023/01/03 07:31:14;;;;;;;29.67;19.58;;;;;;;2.67;81.76;101155.91;5080985;28;20456;-26
2023/01/03 07:33:39;;;;;;;35.75;22.98;;;;;;;2.63;82.79;101159.81;5065604;28;20119;-27
2023/01/03 07:36:08;;;;;;;40.67;29.08;;;;;;;2.76;82.68;101180.59;5079246;28;20027;-26
2023/01/03 07:38:34;;;;;;;37.17;24.50;;;;;;;2.77;83.68;101169.91;5061666;28;20021;-25
2023/01/03 07:41:01;;;;;;;34.20;21.90;;;;;;;2.98;83.60;101169.75;5061888;28;20035;-28
2023/01/03 07:43:35;;;;;;;29.60;20.42;;;;;;;3.17;82.59;101163.59;5081621;28;20032;-26
2023/01/03 07:46:20;;;;;;;37.88;22.63;;;;;;;3.29;83.19;101197.69;5062562;28;20071;-25
2023/01/03 07:48:48;;;;;;;35.15;20.67;;;;;;;3.05;85.33;101175.28;5081631;28;20028;-26
2023/01/03 07:51:15;;;;;;;34.50;22.05;;;;;;;3.18;86.07;101159.97;5086918;28;20446;-26
2023/01/03 07:53:41;;;;;;;41.38;25.75;;;;;;;3.52;84.45;101169.97;5090517;28;20106;-26
2023/01/03 07:56:19;;;;;;;36.40;22.73;;;;;;;3.18;85.48;101167.06;5090401;28;20457;-26
2023/01/03 07:58:45;;;;;;;37.60;23.15;;;;;;;3.49;85.86;101172.91;5090829;28;20032;-26
2023/01/03 08:01:16;;;;;;;40.08;24.90;;;;;;;3.85;86.98;101175.66;5080455;28;20040;-31
2023/01/03 08:03:43;;;;;;;35.55;23.70;;;;;;;4.00;85.85;101176.81;5069289;28;20025;-25
2023/01/03 08:06:11;;;;;;;31.45;21.35;;;;;;;4.09;84.84;101174.28;5069842;28;20051;-30
2023/01/03 08:08:37;;;;;;;35.30;22.23;;;;;;;4.15;83.83;101171.84;5070433;28;20083;-27
2023/01/03 08:13:47;;;;;;;31.85;21.02;;;;;;;4.40;83.38;101172.09;5070395;28;20416;-26
2023/01/03 08:16:15;;;;;;;31.65;21.88;;;;;;;4.65;82.99;101154.63;5069752;28;20025;-25
2023/01/03 08:18:41;;;;;;;36.95;23.77;;;;;;;4.99;83.47;101159.19;5069749;28;20028;-26
2023/01/03 08:21:09;;;;;;;32.45;21.58;;;;;;;5.09;82.14;101141.41;5051908;28;20028;-26
2023/01/03 08:23:35;;;;;;;41.78;26.13;;;;;;;5.44;81.73;101166.03;5069922;28;20044;-26
2023/01/03 08:26:08;;;;;;;42.80;24.48;;;;;;;5.21;80.50;101145.44;5069658;28;20021;-25
2023/01/03 08:28:35;;;;;;;36.00;23.05;;;;;;;5.46;81.21;101134.97;5051182;28;20032;-30
2023/01/03 08:31:14;;;;;;;39.00;24.27;;;;;;;5.60;80.55;101157.34;5088180;28;20024;-30
2023/01/03 08:33:51;;;;;;;37.58;23.70;;;;;;;5.44;82.42;101155.47;5071415;28;20104;-28
2023/01/03 08:36:18;;;;;;;32.28;21.92;;;;;;;5.40;82.75;101157.59;5089933;28;20031;-27
2023/01/03 08:38:54;;;;;;;34.83;22.17;;;;;;;5.67;81.59;101149.59;5089897;28;20058;-28
2023/01/03 08:41:25;;;;;;;34.35;21.20;;;;;;;5.73;81.72;101154.25;5089836;28;20028;-27
2023/01/03 08:43:52;;;;;;;38.97;23.65;;;;;;;5.86;81.42;101149.31;5090177;28;20035;-27
2023/01/03 08:46:17;;;;;;;33.88;22.20;;;;;;;5.96;80.58;101152.69;5089754;28;20016;-27
2023/01/03 08:48:44;;;;;;;34.97;22.38;;;;;;;5.80;81.46;101140.22;5090023;28;20110;-27
2023/01/03 08:51:10;;;;;;;35.20;22.33;;;;;;;6.07;81.27;101137.47;5089843;28;20028;-25
2023/01/03 08:53:35;;;;;;;45.20;23.60;;;;;;;6.11;81.15;101126.41;5089422;28;20036;-27
2023/01/03 08:56:01;;;;;;;34.08;23.08;;;;;;;6.19;80.46;101120.28;5089123;28;20024;-25
2023/01/03 08:58:26;;;;;;;41.95;25.38;;;;;;;6.42;79.92;101126.59;5088312;28;20028;-26
2023/01/03 09:00:52;;;;;;;41.90;26.65;;;;;;;6.48;80.40;101133.06;5089695;28;20028;-26
2023/01/03 09:03:18;;;;;;;41.28;25.95;;;;;;;6.78;79.71;101136.84;5089682;28;20479;-26
2023/01/03 09:05:44;;;;;;;35.75;22.77;;;;;;;7.13;79.04;101140.09;5071396;28;20031;-25
2023/01/03 09:08:09;;;;;;;104.50;50.95;;;;;;;7.31;78.15;101139.88;5089232;28;20028;-27
2023/01/03 09:10:35;;;;;;;169.15;74.85;;;;;;;7.64;77.15;101140.59;5089102;28;20024;-30
2023/01/03 09:13:03;;;;;;;43.30;26.70;;;;;;;8.07;77.85;101134.03;5089105;28;20032;-25
2023/01/03 09:15:29;;;;;;;44.25;27.05;;;;;;;8.27;76.35;101124.59;5071019;28;20020;-28
2023/01/03 09:17:54;;;;;;;54.20;29.75;;;;;;;8.65;75.04;101127.31;5071171;28;20039;-27
2023/01/03 09:20:20;;;;;;;37.05;23.38;;;;;;;8.89;72.87;101128.06;5088888;28;20039;-26
2023/01/03 09:22:46;;;;;;;36.60;24.02;;;;;;;9.09;73.65;101121.19;5089482;28;20101;-28
2023/01/03 09:25:13;;;;;;;34.28;23.45;;;;;;;9.28;73.34;101111.84;5089127;28;20032;-27
2023/01/03 09:27:38;;;;;;;36.50;22.95;;;;;;;9.16;72.43;101092.84;5088561;28;20024;-26
2023/01/03 09:30:04;;;;;;;33.20;20.83;;;;;;;9.47;71.69;101107.78;5089300;28;20023;-26
2023/01/03 09:32:30;;;;;;;36.53;22.88;;;;;;;9.50;71.29;101088.78;5089071;28;20035;-27
2023/01/03 09:34:55;;;;;;;36.35;21.67;;;;;;;9.56;71.26;101085.38;5089087;28;20114;-28
2023/01/03 09:37:20;;;;;;;37.35;23.58;;;;;;;9.92;71.13;101086.38;5088908;28;20020;-27
2023/01/03 09:39:46;;;;;;;33.40;21.85;;;;;;;10.20;70.68;101084.59;5070786;28;20024;-29
2023/01/03 09:45:09;;;;;;;36.05;22.52;;;;;;;10.59;69.88;101083.31;5089220;28;20035;-29
2023/01/03 09:47:37;;;;;;;39.58;23.73;;;;;;;10.90;68.42;101078.59;5087903;28;20043;-30
2023/01/03 09:50:04;;;;;;;38.63;25.70;;;;;;;10.70;69.98;101057.94;5087788;28;20032;-26
2023/01/03 10:04:06;;;;;;;40.85;24.80;;;;;;;12.12;65.16;101045.75;5089066;28;20050;-27
2023/01/03 10:06:42;;;;;;;35.20;22.95;;;;;;;12.29;64.62;101030.09;5089026;28;20051;-27
2023/01/03 10:09:37;;;;;;;36.03;23.13;;;;;;;12.39;62.83;101030.50;5088579;28;20024;-27
2023/01/03 10:12:20;;;;;;;33.78;19.23;;;;;;;12.89;60.41;101031.84;5064579;28;20105;-27
2023/01/03 10:15:06;;;;;;;27.52;17.52;;;;;;;12.80;60.10;101021.38;5088822;28;20032;-26
2023/01/03 10:18:14;;;;;;;26.85;17.30;;;;;;;13.27;57.93;101021.22;5088598;28;20055;-27
2023/01/03 10:20:54;;;;;;;33.22;20.80;;;;;;;13.33;58.25;101008.88;5088947;28;20172;-27
2023/01/03 10:23:20;;;;;;;32.70;19.00;;;;;;;12.98;58.90;101006.50;5088527;28;20576;-27
2023/01/03 10:25:46;;;;;;;30.13;18.90;;;;;;;13.51;57.83;101006.28;5088388;28;20075;-27
2023/01/03 10:28:17;;;;;;;44.10;25.70;;;;;;;13.62;55.67;101002.09;5086077;28;20492;-30
2023/01/03 10:30:59;;;;;;;73.50;34.17;;;;;;;13.86;55.96;101003.19;5083112;28;20026;-27
2023/01/03 10:33:35;;;;;;;29.63;17.73;;;;;;;13.98;56.19;100979.16;5074832;28;20081;-28
2023/01/03 10:36:01;;;;;;;39.80;21.45;;;;;;;14.04;55.54;100972.91;5081624;28;20028;-27
2023/01/03 10:38:27;;;;;;;40.42;23.50;;;;;;;14.33;54.64;101003.59;5082393;28;20020;-27
2023/01/03 10:40:57;;;;;;;28.20;18.02;;;;;;;14.10;56.67;100987.28;5080563;28;20127;-27
2023/01/03 10:43:38;;;;;;;25.95;17.27;;;;;;;14.58;55.22;100989.34;5087947;28;20082;-27
2023/01/03 10:46:25;;;;;;;30.50;18.65;;;;;;;14.79;53.77;100988.94;5087408;28;20024;-29
2023/01/03 10:48:52;;;;;;;29.65;19.05;;;;;;;14.82;53.75;100966.16;5081370;28;20039;-30
2023/01/03 10:51:29;;;;;;;25.23;15.90;;;;;;;14.99;51.87;100980.63;5085953;28;20428;-27
2023/01/03 10:53:57;;;;;;;19.88;12.18;;;;;;;14.66;51.16;100965.72;5073829;28;20775;-30
2023/01/03 10:56:25;;;;;;;21.90;13.70;;;;;;;14.97;51.38;100971.16;5091724;28;20032;-26
2023/01/03 10:59:29;;;;;;;17.58;11.82;;;;;;;15.16;49.96;100964.72;5091719;28;20118;-28
2023/01/03 11:01:56;;;;;;;24.85;13.80;;;;;;;15.53;48.63;100956.53;5091600;28;20028;-26
2023/01/03 11:04:23;;;;;;;19.85;12.13;;;;;;;15.67;47.97;100947.22;5091744;28;20066;-26
2023/01/03 11:07:02;;;;;;;20.77;12.73;;;;;;;15.79;47.75;100941.06;5091619;28;20031;-31
2023/01/03 11:09:34;;;;;;;24.83;13.88;;;;;;;16.18;47.81;100950.34;5091556;28;20016;-28
2023/01/03 11:12:11;;;;;;;22.65;14.30;;;;;;;16.62;46.76;100949.94;5073174;28;20062;-28
2023/01/03 11:14:37;;;;;;;21.63;13.18;;;;;;;16.58;46.26;100921.84;5091744;28;20040;-26
2023/01/03 11:17:04;;;;;;;21.73;13.75;;;;;;;16.02;48.64;100943.78;5091478;28;20047;-27
2023/01/03 11:19:32;;;;;;;21.07;14.00;;;;;;;16.75;47.08;100946.97;5073281;28;20064;-28
2023/01/03 11:22:17;;;;;;;;;;;;;;;17.35;44.67;100947.63;5091180;28;20294;-28
2023/01/03 11:24:52;;;;;;;31.10;17.70;;;;;;;17.84;44.34;100935.25;5049785;28;19920;-30
2023/01/03 11:27:57;;;;;;;24.98;13.38;;;;;;;17.93;43.56;100913.25;5073109;28;20028;-27
2023/01/03 11:30:48;;;;;;;28.38;14.65;;;;;;;18.27;43.63;100931.03;5090621;28;20093;-31
2023/01/03 11:33:34;;;;;;;18.73;11.73;;;;;;;18.60;41.89;100931.19;5091324;28;20036;-27
2023/01/03 11:36:19;;;;;;;20.38;11.52;;;;;;;19.00;41.30;100925.47;5078126;28;20036;-28
2023/01/03 11:39:02;;;;;;;20.92;12.85;;;;;;;19.00;40.58;100919.22;5070665;28;20635;-28
2023/01/03 11:41:46;;;;;;;33.88;17.95;;;;;;;19.19;40.81;100917.81;5070988;28;20032;-31
2023/01/03 11:44:37;;;;;;;21.98;13.43;;;;;;;19.04;40.34;100918.47;5081369;28;20028;-30
2023/01/03 11:47:15;;;;;;;19.27;12.43;;;;;;;18.33;41.47;100910.31;5055748;28;20089;-30
2023/01/03 11:50:00;;;;;;;16.77;11.73;;;;;;;18.79;40.91;100905.50;5079795;28;20120;-29
2023/01/03 11:52:48;;;;;;;22.63;18.05;;;;;;;18.84;40.53;100912.84;5041131;28;20537;-31
2023/01/03 11:55:32;;;;;;;16.20;10.80;;;;;;;19.61;40.23;100898.16;5033926;28;20047;-29
2023/01/03 11:57:57;;;;;;;14.98;10.05;;;;;;;20.16;38.35;100903.44;5081338;28;20476;-28
2023/01/03 12:00:31;;;;;;;18.20;12.30;;;;;;;19.84;38.79;100893.50;5079565;28;20024;-28
2023/01/03 12:03:41;;;;;;;17.65;11.15;;;;;;;20.06;37.66;100887.94;5079073;28;20111;-28
2023/01/03 12:06:25;;;;;;;16.52;10.77;;;;;;;20.42;37.56;100885.41;5006500;28;20065;-29
2023/01/03 12:09:10;;;;;;;17.92;10.52;;;;;;;20.79;36.91;100889.91;5063652;28;20033;-31
2023/01/03 12:11:57;;;;;;;20.38;14.48;;;;;;;20.95;36.51;100888.06;5068773;28;20521;-28
2023/01/03 12:14:57;;;;;;;22.92;14.93;;;;;;;21.18;35.84;100894.88;5070020;28;20101;-30
2023/01/03 12:17:47;;;;;;;23.85;14.65;;;;;;;21.57;35.47;100884.31;5070058;28;20067;-27
2023/01/03 12:20:21;;;;;;;24.77;18.20;;;;;;;21.62;34.88;100878.09;5069637;28;20435;-27
2023/01/03 12:22:55;;;;;;;24.85;17.58;;;;;;;21.89;34.21;100868.81;5069848;28;20519;-30
2023/01/03 12:25:28;;;;;;;31.33;18.48;;;;;;;21.99;33.69;100858.75;5070343;28;20029;-31
2023/01/03 12:28:09;;;;;;;26.02;17.33;;;;;;;22.04;34.45;100872.28;5069943;28;20490;-27
2023/01/03 12:30:45;;;;;;;35.90;20.00;;;;;;;21.36;34.74;100855.53;5069638;28;20036;-29